Impacts METAR Board INFO
IDs:

KCLT - Charlotte/Douglas In, NC, US

Updated at: 0501 UTC 18 Feb 2018
Potential Impact None Slight Moderate High
Time17/17Z 17/18Z 17/19Z 17/20Z 17/21Z 17/22Z 17/23Z 18/00Z 18/01Z 18/02Z 18/03Z 18/04Z 18/05Z
VIS10 10 6 9 8 10 10 10 10 10 6 10 10
CIG27 26 26 11 11 7 28 20 17 15 3 4 5
CoverOVCOVCOVCOVCOVCOVCOVCBKNOVCOVCOVCOVCOVC
FltCatMVFRMVFRMVFRMVFRMVFRIFRMVFRMVFRMVFRMVFRLIFRLIFRIFR
WX-----RA BR-RA-RA-RA---------RA BR----
WDir60702034031034010330350360301020
WSpd7 5 4 6 9 4 4 3 6 4 6 8 5
WGst-- -- -- -- -- -- -- -- -- -- -- -- --
Raw hourly METARs
KCLT 171652Z 06007KT 360V080 10SM OVC027 11/05 A3018 RMK AO2 DZB41E52 SLP218 P0000 T01110050
KCLT 171752Z 07005KT 10SM FEW019 OVC026 11/06 A3015 RMK AO2 DZB21E39 SLP208 P0000 60000 T01110056 10117 20106 58023
KCLT 171852Z 02004KT 6SM -RA BR FEW017 OVC026 10/08 A3012 RMK AO2 RAB13 SLP199 P0000 T01000078
KCLT 171952Z 34006KT 9SM -RA FEW008 BKN011 OVC036 10/08 A3012 RMK AO2 RAE29B49 SLP196 P0001 T01000083
KCLT 172052Z 31009KT 8SM -RA SCT009 BKN011 OVC033 10/09 A3011 RMK AO2 RAE1959B20 SLP196 P0000 60001 T01000089 56013
KCLT 172152Z 34004KT 10SM -RA BKN007 BKN013 OVC033 09/08 A3009 RMK AO2 RAE2053B12 CIG 006V011 SLP189 P0001 T00940083
KCLT 172252Z 01004KT 10SM FEW005 OVC028 09/08 A3008 RMK AO2 RAE49 SLP185 P0000 T00940083
KCLT 172352Z 33003KT 10SM BKN020 10/09 A3008 RMK AO2 RAB2255E09 SLP184 P0000 60002 T01000094 10111 20089 56012
KCLT 180052Z 35006KT 10SM SCT005 OVC017 09/09 A3009 RMK AO2 SLP189 T00940089
KCLT 180152Z 36004KT 10SM SCT005 OVC015 09/09 A3008 RMK AO2 SLP185 T00940089
KCLT 180252Z 03006KT 6SM -RA BR OVC003 09/09 A3009 RMK AO2 RAB21 SLP190 P0000 60000 T00890089 53004
KCLT 180352Z 01008KT 10SM OVC004 08/08 A3011 RMK AO2 RAE30 SLP194 P0002 T00830078
KCLT 180452Z 02005KT 10SM BKN005 OVC012 08/07 A3011 RMK AO2 SLP195 T00780072 401610078